Portada
METAR-TAF:

METAR-TAF

Aeroports :

Belgaum, Índia

latitud: 15-51-33N, longitud: 74-37-03E, altitud: 758 m

Observació

L'informe es va fer fa 55 minuts, a les 00:00 UTC
Vent calma
Temperatura 23°C
Humitat 89%
Pressió 1014 hPa
Visibilitat: 6000 m
Escasses núvols a una alçada de 1500 ft

METAR: VOBM 040000Z 00000KT 6000 FEW015 23/21 Q1014

Hora: 06:25 (00:55 UTC)

Pronòstic

L'informe es va fer fa 7 hores i 55 minuts, a les 17:00 UTC
Pronòstic vàlid del 03 a les 18 UTC al 04 a les 03 UTC
Vent 5 kt del Oest
Visibilitat: 6000 m
Escasses núvols a una alçada de 1500 ft

TAF: VOBM 031700Z 0318/0403 27005KT 6000 FEW015

Observacions i pronòstics meteorològics de més de 4000 aeroports (METAR i TAF).

Les estacions disponibles són els punts grocs i vermells al mapa.

Posi el ratolí al punt desitjat per veure el nom de l'estació.

Feu clic per veure les observacions i els pronòstics meteorològics.

Per canviar el mapa: feu clic els botons verds amb una creu de color negre per apropar; al botó verd amb un guió per allunyar la imatge; o en les fletxes verdes per a mapes adjacents.


METAR-TAF: